Poynton, United Kingdom
Current Conditions -  °F | °C
As of 1:50 AM on Friday 21 Nov 2014 (Local Time) from EGCC Reporting Station
Haze Haze  
Wind Chill: 32°   Ceiling: 2900
Heat Index: 37°   Visibility: 2.1mi
Dew Point: 37°   Wind: 7mph
Humidity: 100%   Direction: 60°ENE
Pressure: 30.21"   Gusts: NA
Location:  53.35°N, 2.12°W
Report Text: EGCC 210150Z 06006KT 3500 BR BKN029 03/03 Q1023
Loading
Personal Weather Stations






























Interactive Weather Map New forecast layout! Learn more

10-Day Weather Forecast

Advertisements
Track Severe Weather on mobile